Time;durP1;ratioP1;P1;durP2;ratioP2;P2;SDS_P1;SDS_P2;PMS_P1;PMS_P2;Temp;Humidity;BMP_temperature;BMP_pressure;BME280_temperature;BME280_humidity;BME280_pressure;Samples;Min_cycle;Max_cycle;Signal;HPM_P1;HPM_P2
2023/05/22 00:02:01;;;;;;;;;;;17.50;99.90;;;;;;5052522;28;19939;-67
2023/05/22 00:04:28;;;;;;;;;;;17.50;99.90;;;;;;5056210;28;20106;-66
2023/05/22 00:06:54;;;;;;;;;;;17.50;99.90;;;;;;5072402;28;19967;-67
2023/05/22 00:09:20;;;;;;;;;;;17.60;99.90;;;;;;5067657;28;19920;-67
2023/05/22 00:11:46;;;;;;;;;;;17.60;99.90;;;;;;5078259;28;19916;-67
2023/05/22 00:14:12;;;;;;;;;;;17.60;99.90;;;;;;5050397;28;19978;-67
2023/05/22 00:16:38;;;;;;;;;;;17.60;99.90;;;;;;5051445;28;20386;-71
2023/05/22 00:19:11;;;;;;;;;;;17.60;99.90;;;;;;5057458;28;19916;-67
2023/05/22 00:21:41;;;;;;;;;;;17.50;99.90;;;;;;5062245;28;20438;-66
2023/05/22 00:24:07;;;;;;;;;;;17.50;99.90;;;;;;5055360;28;20004;-67
2023/05/22 00:26:32;;;;;;;;;;;17.60;99.90;;;;;;5054607;28;20384;-67
2023/05/22 00:28:58;;;;;;;;;;;17.60;99.90;;;;;;5077532;28;19920;-67
2023/05/22 00:31:23;;;;;;;;;;;17.60;99.90;;;;;;5085209;28;20381;-67
2023/05/22 00:33:49;;;;;;;;;;;17.60;99.90;;;;;;5064476;28;19920;-67
2023/05/22 00:36:14;;;;;;;;;;;17.50;99.90;;;;;;5053653;28;19931;-67
2023/05/22 00:38:40;;;;;;;;;;;17.60;99.90;;;;;;5072358;28;19927;-67
2023/05/22 00:41:06;;;;;;;;;;;17.60;99.90;;;;;;5072669;28;19916;-67
2023/05/22 00:43:34;;;;;;;;;;;17.60;99.90;;;;;;5084488;22;20484;-71
2023/05/22 00:46:00;;;;;;;;;;;17.60;99.90;;;;;;5062238;28;19924;-70
2023/05/22 00:48:26;;;;;;;;;;;17.60;99.90;;;;;;5078845;28;20444;-70
2023/05/22 00:50:53;;;;;;;;;;;17.60;99.90;;;;;;5067753;28;20300;-70
2023/05/22 00:53:19;;;;;;;;;;;17.60;99.90;;;;;;5082070;28;19923;-70
2023/05/22 00:55:45;;;;;;;;;;;17.60;99.90;;;;;;5053744;28;19920;-70
2023/05/22 00:58:13;;;;;;;;;;;17.60;99.90;;;;;;5062557;28;20373;-70
2023/05/22 01:00:40;;;;;;;;;;;17.60;99.90;;;;;;5066039;28;20011;-70
2023/05/22 01:03:06;;;;;;;;;;;17.60;99.90;;;;;;5066763;28;20278;-71
2023/05/22 01:05:33;;;;;;;;;;;17.60;99.90;;;;;;5084732;28;19973;-70
2023/05/22 01:07:58;;;;;;;;;;;17.60;99.90;;;;;;5066241;28;20046;-70
2023/05/22 01:10:24;;;;;;;;;;;17.60;99.90;;;;;;5082529;28;20014;-69
2023/05/22 01:13:09;;;;;;;;;;;17.60;99.90;;;;;;5064255;28;20474;-70
2023/05/22 01:15:41;;;;;;;;;;;17.60;99.90;;;;;;5064021;28;20301;-70
2023/05/22 01:18:18;;;;;;;;;;;17.60;99.90;;;;;;5063389;28;19916;-70
2023/05/22 01:20:50;;;;;;;;;;;17.50;99.90;;;;;;5054012;28;20399;-70
2023/05/22 01:23:30;;;;;;;;;;;17.50;99.90;;;;;;5061430;28;20001;-70
2023/05/22 01:26:02;;;;;;;;;;;17.50;99.90;;;;;;5066383;28;19920;-71
2023/05/22 01:28:33;;;;;;;;;;;17.50;99.90;;;;;;5083461;28;19923;-71
2023/05/22 01:30:59;;;;;;;;;;;17.40;99.90;;;;;;5081420;28;20321;-70
2023/05/22 01:33:26;;;;;;;;;;;17.40;99.90;;;;;;5055674;28;20014;-70
2023/05/22 01:35:52;;;;;;;;;;;17.40;99.90;;;;;;5050503;28;20388;-70
2023/05/22 01:38:18;;;;;;;;;;;17.40;99.90;;;;;;5059758;28;19919;-70
2023/05/22 01:40:45;;;;;;;;;;;17.40;99.90;;;;;;5062130;28;19930;-70
2023/05/22 01:43:11;;;;;;;;;;;17.30;99.90;;;;;;5060950;28;19916;-68
2023/05/22 01:45:37;;;;;;;;;;;17.30;99.90;;;;;;5081196;28;19920;-68
2023/05/22 01:48:02;;;;;;;;;;;17.30;99.90;;;;;;5082213;28;19923;-68
2023/05/22 01:50:28;;;;;;;;;;;17.30;99.90;;;;;;5059439;28;20270;-68
2023/05/22 01:53:06;;;;;;;;;;;17.30;99.90;;;;;;5062465;28;20124;-68
2023/05/22 01:55:35;;;;;;;;;;;17.30;99.90;;;;;;5056685;28;19947;-68
2023/05/22 01:58:25;;;;;;;;;;;17.30;99.90;;;;;;5072243;28;19924;-68
2023/05/22 02:00:53;;;;;;;;;;;17.20;99.90;;;;;;5074495;28;20407;-68
2023/05/22 02:03:21;;;;;;;;;;;17.30;99.90;;;;;;5061837;28;19987;-68
2023/05/22 02:05:47;;;;;;;;;;;17.20;99.90;;;;;;5080524;28;19927;-68
2023/05/22 02:08:13;;;;;;;;;;;17.20;99.90;;;;;;5061653;28;19962;-68
2023/05/22 02:10:39;;;;;;;;;;;17.30;99.90;;;;;;5066558;28;19920;-68
2023/05/22 02:13:08;;;;;;;;;;;17.20;99.90;;;;;;5065001;28;20327;-67
2023/05/22 02:15:33;;;;;;;;;;;17.20;99.90;;;;;;5063528;28;20262;-68
2023/05/22 02:17:59;;;;;;;;;;;17.20;99.90;;;;;;5066256;28;19973;-68
2023/05/22 02:20:24;;;;;;;;;;;17.20;99.90;;;;;;5076373;28;19926;-67
2023/05/22 02:22:50;;;;;;;;;;;17.20;99.90;;;;;;5070084;28;20387;-68
2023/05/22 02:25:16;;;;;;;;;;;17.20;99.90;;;;;;5042985;28;20047;-68
2023/05/22 02:27:45;;;;;;;;;;;17.20;99.90;;;;;;5062093;28;19916;-68
2023/05/22 02:30:11;;;;;;;;;;;17.20;99.90;;;;;;5064677;28;20083;-68
2023/05/22 02:32:37;;;;;;;;;;;17.20;99.90;;;;;;5066285;28;20389;-68
2023/05/22 02:35:03;;;;;;;;;;;17.10;99.90;;;;;;5084533;28;19969;-68
2023/05/22 02:37:29;;;;;;;;;;;17.10;99.90;;;;;;5064173;28;19923;-68
2023/05/22 02:39:55;;;;;;;;;;;17.10;99.90;;;;;;5078217;28;19920;-68
2023/05/22 02:42:21;;;;;;;;;;;17.10;99.90;;;;;;5080987;28;19931;-68
2023/05/22 02:44:46;;;;;;;;;;;17.10;99.90;;;;;;5060678;28;20053;-68
2023/05/22 02:47:12;;;;;;;;;;;17.20;99.90;;;;;;5055711;28;19999;-68
2023/05/22 02:49:37;;;;;;;;;;;17.10;99.90;;;;;;5078558;28;20370;-68
2023/05/22 02:52:03;;;;;;;;;;;17.10;99.90;;;;;;5067881;28;19916;-68
2023/05/22 02:54:28;;;;;;;;;;;17.10;99.90;;;;;;5060995;28;19925;-68
2023/05/22 02:56:54;;;;;;;;;;;17.10;99.90;;;;;;5052184;28;19927;-68
2023/05/22 02:59:20;;;;;;;;;;;17.10;99.90;;;;;;5059199;28;19971;-68
2023/05/22 03:01:47;;;;;;;;;;;17.10;99.90;;;;;;5060898;28;20002;-67
2023/05/22 03:04:12;;;;;;;;;;;17.00;99.90;;;;;;5077671;28;19924;-68
2023/05/22 03:06:38;;;;;;;;;;;17.10;99.90;;;;;;5076802;28;19969;-68
2023/05/22 03:09:04;;;;;;;;;;;17.10;99.90;;;;;;5054676;28;20281;-68
2023/05/22 03:11:30;;;;;;;;;;;17.10;99.90;;;;;;5064341;28;19923;-67
2023/05/22 03:13:56;;;;;;;;;;;17.00;99.90;;;;;;5063766;28;20011;-68
2023/05/22 03:16:21;;;;;;;;;;;17.00;99.90;;;;;;5059666;28;19928;-68
2023/05/22 03:18:49;;;;;;;;;;;17.00;99.90;;;;;;5057544;28;19927;-68
2023/05/22 03:21:14;;;;;;;;;;;17.00;99.90;;;;;;5058727;28;20015;-68
2023/05/22 03:23:40;;;;;;;;;;;16.90;99.90;;;;;;5057636;28;20066;-68
2023/05/22 03:26:05;;;;;;;;;;;17.00;99.90;;;;;;5080569;28;19920;-68
2023/05/22 03:28:31;;;;;;;;;;;16.90;99.90;;;;;;5080331;28;20379;-68
2023/05/22 03:30:56;;;;;;;;;;;16.90;99.90;;;;;;5077511;28;19920;-67
2023/05/22 03:33:22;;;;;;;;;;;16.90;99.90;;;;;;5063877;28;19969;-68
2023/05/22 03:35:51;;;;;;;;;;;16.90;99.90;;;;;;5061518;28;19985;-68
2023/05/22 03:38:16;;;;;;;;;;;16.90;99.90;;;;;;5055777;28;19936;-67
2023/05/22 03:40:41;;;;;;;;;;;16.90;99.90;;;;;;5066238;28;20015;-68
2023/05/22 03:43:07;;;;;;;;;;;16.80;99.90;;;;;;5085080;28;19932;-68
2023/05/22 03:45:32;;;;;;;;;;;16.80;99.90;;;;;;5058775;28;19981;-68
2023/05/22 03:47:58;;;;;;;;;;;16.80;99.90;;;;;;5057270;28;19916;-68
2023/05/22 03:50:24;;;;;;;;;;;16.70;99.90;;;;;;5069128;28;20390;-68
2023/05/22 03:52:49;;;;;;;;;;;16.70;99.90;;;;;;5081623;28;19916;-67
2023/05/22 03:55:15;;;;;;;;;;;16.70;99.90;;;;;;5080988;28;19920;-68
2023/05/22 03:57:40;;;;;;;;;;;16.70;99.90;;;;;;5059488;28;20122;-68
2023/05/22 04:00:08;;;;;;;;;;;16.70;99.90;;;;;;5062519;28;19924;-67
2023/05/22 04:02:34;;;;;;;;;;;16.70;99.90;;;;;;5065589;28;20388;-68
2023/05/22 04:05:00;;;;;;;;;;;16.70;99.90;;;;;;5068745;28;19920;-68
2023/05/22 04:07:25;;;;;;;;;;;16.60;99.90;;;;;;5083595;28;20017;-68
2023/05/22 04:09:53;;;;;;;;;;;16.60;99.90;;;;;;5083119;28;20324;-68
2023/05/22 04:12:19;;;;;;;;;;;16.60;99.90;;;;;;5065765;28;20290;-68
2023/05/22 04:14:47;;;;;;;;;;;16.60;99.90;;;;;;5081532;28;19966;-68
2023/05/22 04:17:12;;;;;;;;;;;16.60;99.90;;;;;;5066444;28;19920;-68
2023/05/22 04:19:38;;;;;;;;;;;16.70;99.90;;;;;;5084020;28;20031;-68
2023/05/22 04:22:03;;;;;;;;;;;16.60;99.90;;;;;;5063670;28;19924;-68
2023/05/22 04:24:29;;;;;;;;;;;16.60;99.90;;;;;;5062691;28;20420;-67
2023/05/22 04:26:55;;;;;;;;;;;16.60;99.90;;;;;;5066580;28;20011;-67
2023/05/22 04:29:21;;;;;;;;;;;16.60;99.90;;;;;;5083679;28;19916;-68
2023/05/22 04:31:46;;;;;;;;;;;16.60;99.90;;;;;;5081901;28;19916;-68
2023/05/22 04:34:14;;;;;;;;;;;16.60;99.90;;;;;;5072329;28;19942;-67
2023/05/22 04:36:42;;;;;;;;;;;16.60;99.90;;;;;;5066238;28;19923;-68
2023/05/22 04:39:07;;;;;;;;;;;16.60;99.90;;;;;;5065339;28;19916;-68
2023/05/22 04:41:33;;;;;;;;;;;16.50;99.90;;;;;;5062537;28;20334;-68
2023/05/22 04:44:02;;;;;;;;;;;16.60;99.90;;;;;;5061082;28;19916;-68
2023/05/22 04:46:28;;;;;;;;;;;16.70;99.90;;;;;;5072130;28;19926;-68
2023/05/22 04:48:53;;;;;;;;;;;16.60;99.90;;;;;;5076937;28;19924;-68
2023/05/22 04:51:21;;;;;;;;;;;16.70;99.90;;;;;;5078366;28;19916;-68
2023/05/22 04:53:48;;;;;;;;;;;16.70;99.90;;;;;;5065464;28;19919;-68
2023/05/22 04:56:14;;;;;;;;;;;16.70;99.90;;;;;;5068495;28;19916;-68
2023/05/22 04:58:39;;;;;;;;;;;16.80;99.90;;;;;;5067732;28;20065;-68
2023/05/22 05:01:05;;;;;;;;;;;16.70;99.90;;;;;;5066399;28;20443;-68
2023/05/22 05:03:30;;;;;;;;;;;16.70;99.90;;;;;;5064665;28;20010;-68
2023/05/22 05:05:55;;;;;;;;;;;16.70;99.90;;;;;;5082481;28;19921;-68
2023/05/22 05:08:21;;;;;;;;;;;16.70;99.90;;;;;;5066832;28;20296;-68
2023/05/22 05:10:49;;;;;;;;;;;16.70;99.90;;;;;;5065091;28;19923;-68
2023/05/22 05:13:14;;;;;;;;;;;16.70;99.90;;;;;;5056616;28;19920;-68
2023/05/22 05:15:40;;;;;;;;;;;16.70;99.90;;;;;;5085663;28;19923;-68
2023/05/22 05:18:05;;;;;;;;;;;16.70;99.90;;;;;;5047339;28;20385;-68
2023/05/22 05:20:31;;;;;;;;;;;16.80;99.90;;;;;;5056690;28;20009;-68
2023/05/22 05:22:56;;;;;;;;;;;16.80;99.90;;;;;;5063917;28;20011;-68
2023/05/22 05:25:22;;;;;;;;;;;16.70;99.90;;;;;;5087004;28;20234;-68
2023/05/22 05:27:47;;;;;;;;;;;16.70;99.90;;;;;;5065065;28;20368;-68
2023/05/22 05:30:13;;;;;;;;;;;16.70;99.90;;;;;;5059548;28;19922;-68
2023/05/22 05:32:41;;;;;;;;;;;16.70;99.90;;;;;;5084583;28;19923;-68
2023/05/22 05:35:07;;;;;;;;;;;16.70;99.90;;;;;;5065093;28;19965;-68
2023/05/22 05:37:33;;;;;;;;;;;16.60;99.90;;;;;;5060923;28;19962;-68
2023/05/22 05:39:58;;;;;;;;;;;16.60;99.90;;;;;;5081912;28;19919;-75
2023/05/22 05:42:24;;;;;;;;;;;16.50;99.90;;;;;;5067119;28;19927;-68
2023/05/22 05:44:49;;;;;;;;;;;16.50;99.90;;;;;;5057053;28;19924;-68
2023/05/22 05:47:16;;;;;;;;;;;16.40;99.90;;;;;;5063632;28;20076;-68
2023/05/22 05:49:41;;;;;;;;;;;16.40;99.90;;;;;;5059580;28;19931;-68
2023/05/22 05:52:07;;;;;;;;;;;16.40;99.90;;;;;;5062042;28;20760;-68
2023/05/22 05:54:33;;;;;;;;;;;16.30;99.90;;;;;;5062281;28;19927;-69
2023/05/22 05:56:58;;;;;;;;;;;16.30;99.90;;;;;;5069146;28;19954;-68
2023/05/22 05:59:24;;;;;;;;;;;16.30;99.90;;;;;;5065076;28;19942;-73
2023/05/22 06:01:49;;;;;;;;;;;16.20;99.90;;;;;;5063342;28;19924;-70
2023/05/22 06:04:15;;;;;;;;;;;16.30;99.90;;;;;;5065598;28;19924;-70
2023/05/22 06:06:41;;;;;;;;;;;16.30;99.90;;;;;;5063784;28;19920;-69
2023/05/22 06:09:07;;;;;;;;;;;16.30;99.90;;;;;;5082549;28;20366;-73
2023/05/22 06:11:32;;;;;;;;;;;16.30;99.90;;;;;;5041506;28;19924;-68
2023/05/22 06:14:04;;;;;;;;;;;16.30;99.90;;;;;;5064365;28;20365;-69
2023/05/22 06:16:29;;;;;;;;;;;16.30;99.90;;;;;;5058971;28;19916;-72
2023/05/22 06:18:56;;;;;;;;;;;16.40;99.90;;;;;;5080760;28;19941;-76
2023/05/22 06:21:23;;;;;;;;;;;16.40;99.90;;;;;;5064133;28;19923;-75
2023/05/22 06:23:49;;;;;;;;;;;16.40;99.90;;;;;;5055131;28;19987;-68
2023/05/22 06:26:15;;;;;;;;;;;16.40;99.90;;;;;;5053789;28;19935;-68
2023/05/22 06:28:40;;;;;;;;;;;16.40;99.90;;;;;;5079883;28;19924;-68
2023/05/22 06:31:08;;;;;;;;;;;16.40;99.90;;;;;;5057832;28;20305;-69
2023/05/22 06:33:36;;;;;;;;;;;16.50;99.90;;;;;;5072363;28;19969;-68
2023/05/22 06:36:05;;;;;;;;;;;16.50;99.90;;;;;;5063102;28;19920;-68
2023/05/22 06:38:31;;;;;;;;;;;16.50;99.90;;;;;;5058391;28;20227;-69
2023/05/22 06:40:57;;;;;;;;;;;16.50;99.90;;;;;;5059896;28;19922;-69
2023/05/22 06:43:23;;;;;;;;;;;16.50;99.90;;;;;;5075852;22;20231;-67
2023/05/22 06:45:49;;;;;;;;;;;16.70;99.90;;;;;;5040878;28;19924;-66
2023/05/22 06:48:15;;;;;;;;;;;16.60;99.90;;;;;;5046501;28;19969;-67
2023/05/22 06:50:41;;;;;;;;;;;16.70;99.90;;;;;;5067750;28;19920;-70
2023/05/22 06:53:06;;;;;;;;;;;16.70;99.90;;;;;;5029280;28;19916;-67
2023/05/22 06:55:32;;;;;;;;;;;16.80;99.90;;;;;;5040460;28;20050;-66
2023/05/22 06:57:57;;;;;;;;;;;16.80;99.90;;;;;;5036721;28;19917;-66
2023/05/22 07:00:24;;;;;;;;;;;16.90;99.90;;;;;;4993050;28;19928;-67
2023/05/22 07:02:49;;;;;;;;;;;16.90;99.90;;;;;;5013896;28;20330;-66
2023/05/22 07:05:15;;;;;;;;;;;16.90;99.90;;;;;;5035555;28;19944;-67
2023/05/22 07:07:40;;;;;;;;;;;16.90;99.90;;;;;;5038233;28;19920;-66
2023/05/22 07:10:06;;;;;;;;;;;16.90;99.90;;;;;;5036750;28;19943;-66
2023/05/22 07:12:32;;;;;;;;;;;17.00;99.90;;;;;;5040848;28;20002;-66
2023/05/22 07:14:58;;;;;;;;;;;17.00;99.90;;;;;;5011124;28;19928;-66
2023/05/22 07:17:24;;;;;;;;;;;17.00;99.90;;;;;;5023674;28;19917;-66
2023/05/22 07:19:50;;;;;;;;;;;17.10;99.90;;;;;;5039397;28;20321;-66
2023/05/22 07:22:16;;;;;;;;;;;17.10;99.90;;;;;;5044469;28;19924;-66
2023/05/22 07:24:41;;;;;;;;;;;17.10;99.90;;;;;;5021780;28;19936;-66
2023/05/22 07:27:08;;;;;;;;;;;17.20;99.90;;;;;;5035853;28;20301;-66
2023/05/22 07:29:33;;;;;;;;;;;17.20;99.90;;;;;;5022962;28;20243;-66
2023/05/22 07:31:59;;;;;;;;;;;17.20;99.90;;;;;;5044030;28;19974;-66
2023/05/22 07:34:30;;;;;;;;;;;17.20;99.90;;;;;;5047132;28;19966;-66
2023/05/22 07:36:56;;;;;;;;;;;17.20;99.90;;;;;;5030621;28;20055;-66
2023/05/22 07:39:22;;;;;;;;;;;17.30;99.90;;;;;;5026924;28;19960;-67
2023/05/22 07:41:51;;;;;;;;;;;17.30;99.90;;;;;;5031896;28;19927;-66
2023/05/22 07:44:16;;;;;;;;;;;17.30;99.90;;;;;;5045541;28;20018;-66
2023/05/22 07:46:42;;;;;;;;;;;17.30;99.90;;;;;;5041876;28;19916;-66
2023/05/22 07:49:08;;;;;;;;;;;17.40;99.90;;;;;;5022788;28;20361;-66
2023/05/22 07:51:33;;;;;;;;;;;17.40;99.90;;;;;;5034748;28;19964;-66
2023/05/22 07:53:59;;;;;;;;;;;17.40;99.90;;;;;;5046172;28;19917;-66
2023/05/22 07:56:26;;;;;;;;;;;17.40;99.90;;;;;;5044329;28;20246;-66
2023/05/22 07:58:51;;;;;;;;;;;17.40;99.90;;;;;;5045279;28;20356;-66
2023/05/22 08:01:17;;;;;;;;;;;17.40;99.90;;;;;;5026143;28;19917;-66
2023/05/22 08:03:42;;;;;;;;;;;17.40;99.90;;;;;;5034982;28;19928;-67
2023/05/22 08:06:08;;;;;;;;;;;17.50;99.90;;;;;;5022716;28;19964;-67
2023/05/22 08:08:33;;;;;;;;;;;17.50;99.90;;;;;;5025824;28;20019;-66
2023/05/22 08:10:59;;;;;;;;;;;17.40;99.90;;;;;;5023339;28;19917;-66
2023/05/22 08:13:24;;;;;;;;;;;17.50;99.90;;;;;;5046781;28;19931;-66
2023/05/22 08:15:50;;;;;;;;;;;17.50;99.90;;;;;;5048305;28;19923;-66
2023/05/22 08:18:16;;;;;;;;;;;17.50;99.90;;;;;;5047167;28;19928;-66
2023/05/22 08:20:41;;;;;;;;;;;17.60;99.90;;;;;;5047056;28;20198;-66
2023/05/22 08:23:07;;;;;;;;;;;17.60;99.90;;;;;;5009050;28;19936;-66
2023/05/22 08:25:32;;;;;;;;;;;17.70;99.90;;;;;;5025866;28;19920;-66
2023/05/22 08:27:58;;;;;;;;;;;17.80;99.90;;;;;;5045094;28;20409;-67
2023/05/22 08:30:24;;;;;;;;;;;17.90;99.90;;;;;;5049414;28;20338;-67
2023/05/22 08:32:49;;;;;;;;;;;17.90;99.90;;;;;;5042649;28;19996;-67
2023/05/22 08:35:15;;;;;;;;;;;18.00;99.90;;;;;;5041531;28;20497;-67
2023/05/22 08:37:40;;;;;;;;;;;18.10;99.90;;;;;;5017234;28;20429;-67
2023/05/22 08:40:10;;;;;;;;;;;18.20;99.90;;;;;;5025071;28;19923;-67
2023/05/22 08:42:35;;;;;;;;;;;18.20;99.90;;;;;;5025483;28;19921;-67
2023/05/22 08:45:01;;;;;;;;;;;18.30;99.90;;;;;;5025422;28;19947;-67
2023/05/22 08:47:27;;;;;;;;;;;18.40;99.90;;;;;;5044786;28;19921;-67
2023/05/22 08:49:53;;;;;;;;;;;18.50;99.90;;;;;;5009732;28;19967;-67
2023/05/22 08:52:25;;;;;;;;;;;18.60;99.90;;;;;;5043544;28;19925;-67
2023/05/22 08:54:54;;;;;;;;;;;18.60;99.90;;;;;;5043053;28;19917;-70
2023/05/22 08:57:20;;;;;;;;;;;18.70;99.90;;;;;;5028104;28;20685;-67
2023/05/22 08:59:46;;;;;;;;;;;18.70;99.90;;;;;;5025530;28;19986;-73
2023/05/22 09:02:12;;;;;;;;;;;18.70;99.90;;;;;;5021023;28;20078;-72
2023/05/22 09:04:39;;;;;;;;;;;18.70;99.90;;;;;;5031118;28;19920;-67
2023/05/22 09:07:05;;;;;;;;;;;18.80;99.90;;;;;;5025043;28;19969;-67
2023/05/22 09:09:34;;;;;;;;;;;18.80;99.90;;;;;;5026256;28;20016;-74
2023/05/22 09:12:01;;;;;;;;;;;18.80;99.90;;;;;;5025844;28;20165;-67
2023/05/22 09:14:26;;;;;;;;;;;18.80;99.90;;;;;;5044282;28;20572;-67
2023/05/22 09:16:53;;;;;;;;;;;18.80;99.90;;;;;;5046523;28;20012;-67
2023/05/22 09:19:19;;;;;;;;;;;18.80;99.90;;;;;;5045950;28;20142;-67
2023/05/22 09:21:44;;;;;;;;;;;18.80;99.90;;;;;;5045521;28;20142;-67
2023/05/22 09:24:10;;;;;;;;;;;18.80;99.90;;;;;;5043302;28;20015;-67
2023/05/22 09:26:39;;;;;;;;;;;18.70;99.90;;;;;;5037629;28;20015;-67
2023/05/22 09:29:06;;;;;;;;;;;18.80;99.90;;;;;;5025824;28;19928;-67
2023/05/22 09:31:36;;;;;;;;;;;18.80;99.90;;;;;;5044981;28;19921;-67
2023/05/22 09:34:03;;;;;;;;;;;18.90;99.90;;;;;;5026430;28;20417;-67
2023/05/22 09:36:31;;;;;;;;;;;18.90;99.90;;;;;;5010488;28;19935;-67
2023/05/22 09:38:58;;;;;;;;;;;19.10;99.90;;;;;;5043723;28;20055;-67
2023/05/22 09:41:24;;;;;;;;;;;19.10;99.90;;;;;;5045437;28;19924;-66
2023/05/22 09:43:50;;;;;;;;;;;19.20;99.90;;;;;;5043031;28;19974;-66
2023/05/22 09:46:16;;;;;;;;;;;19.30;99.90;;;;;;5044533;28;19933;-66
2023/05/22 09:48:42;;;;;;;;;;;19.30;99.90;;;;;;5042998;28;19921;-66
2023/05/22 09:51:09;;;;;;;;;;;19.50;99.90;;;;;;5045063;28;19923;-66
2023/05/22 09:53:35;;;;;;;;;;;19.50;99.90;;;;;;5010164;28;20216;-66
2023/05/22 09:56:01;;;;;;;;;;;19.50;99.90;;;;;;5041335;28;19944;-66
2023/05/22 09:58:29;;;;;;;;;;;19.60;99.90;;;;;;5044649;28;20330;-66
2023/05/22 10:00:55;;;;;;;;;;;19.60;99.90;;;;;;5026268;28;20019;-66
2023/05/22 10:03:25;;;;;;;;;;;19.60;99.90;;;;;;5033838;28;20340;-66
2023/05/22 10:05:52;;;;;;;;;;;19.70;99.90;;;;;;5044103;28;20374;-66
2023/05/22 10:08:22;;;;;;;;;;;19.70;99.90;;;;;;5042608;28;20445;-66
2023/05/22 10:10:51;;;;;;;;;;;19.80;99.90;;;;;;5045957;28;19959;-66
2023/05/22 10:13:17;;;;;;;;;;;19.80;99.90;;;;;;5041753;28;19924;-66
2023/05/22 10:15:42;;;;;;;;;;;19.90;99.90;;;;;;5040025;28;19921;-66
2023/05/22 10:18:08;;;;;;;;;;;20.00;99.90;;;;;;5027419;28;19917;-66
2023/05/22 10:20:34;;;;;;;;;;;20.10;99.90;;;;;;5026853;28;19923;-67
2023/05/22 10:23:01;;;;;;;;;;;20.10;99.90;;;;;;5028298;28;19917;-67
2023/05/22 10:25:27;;;;;;;;;;;20.30;99.90;;;;;;5044856;28;19928;-66
2023/05/22 10:27:53;;;;;;;;;;;20.40;99.90;;;;;;5035549;28;19921;-67
2023/05/22 10:30:28;;;;;;;;;;;20.50;99.90;;;;;;5026188;28;20025;-67
2023/05/22 10:33:15;;;;;;;;;;;20.70;99.90;;;;;;5041062;28;19916;-67
2023/05/22 10:35:47;;;;;;;;;;;20.90;99.90;;;;;;5021327;28;19928;-66
2023/05/22 10:38:31;;;;;;;;;;;21.10;99.90;;;;;;5042624;28;20216;-66
2023/05/22 10:40:57;;;;;;;;;;;21.10;99.90;;;;;;5040759;28;19982;-66
2023/05/22 10:43:22;;;;;;;;;;;21.10;99.90;;;;;;5047693;28;19921;-66
2023/05/22 10:45:48;;;;;;;;;;;21.10;99.90;;;;;;5042571;28;20027;-66
2023/05/22 10:48:14;;;;;;;;;;;21.10;99.90;;;;;;5040757;28;19917;-66
2023/05/22 10:50:48;;;;;;;;;;;21.10;99.90;;;;;;5039937;28;20254;-66
2023/05/22 10:53:18;;;;;;;;;;;21.10;99.90;;;;;;5042547;28;20374;-66
2023/05/22 10:55:47;;;;;;;;;;;21.10;99.90;;;;;;5045841;28;19936;-66
2023/05/22 10:58:13;;;;;;;;;;;21.20;99.90;;;;;;5043129;28;20003;-67
2023/05/22 11:00:38;;;;;;;;;;;21.20;99.90;;;;;;5043501;28;20019;-66
2023/05/22 11:03:07;;;;;;;;;;;21.20;99.90;;;;;;5043038;28;19917;-66
2023/05/22 11:05:33;;;;;;;;;;;21.30;99.90;;;;;;5051069;28;19921;-66
2023/05/22 11:08:08;;;;;;;;;;;21.30;99.90;;;;;;5028836;28;19923;-67
2023/05/22 11:10:50;;;;;;;;;;;21.40;99.90;;;;;;5045814;28;19925;-66
2023/05/22 11:13:16;;;;;;;;;;;21.50;99.90;;;;;;5041171;28;21252;-66
2023/05/22 11:15:45;;;;;;;;;;;21.60;99.90;;;;;;5036914;28;19937;-66
2023/05/22 11:18:13;;;;;;;;;;;21.70;99.90;;;;;;5024489;28;19917;-66
2023/05/22 11:20:38;;;;;;;;;;;21.80;99.90;;;;;;5040792;28;19917;-66
2023/05/22 11:23:05;;;;;;;;;;;21.80;99.90;;;;;;5024933;28;19917;-67
2023/05/22 11:25:36;;;;;;;;;;;21.90;99.90;;;;;;5036463;28;20129;-67
2023/05/22 11:28:02;;;;;;;;;;;22.00;99.90;;;;;;5022445;28;19924;-66
2023/05/22 11:30:29;;;;;;;;;;;22.00;99.90;;;;;;5039373;28;19920;-66
2023/05/22 11:32:56;;;;;;;;;;;22.10;99.90;;;;;;5040969;28;20035;-67
2023/05/22 11:35:22;;;;;;;;;;;22.20;99.90;;;;;;5022510;28;19959;-65
2023/05/22 11:37:49;;;;;;;;;;;22.30;99.90;;;;;;5022845;28;19984;-65
2023/05/22 11:40:15;;;;;;;;;;;22.40;99.90;;;;;;5023590;28;19986;-66
2023/05/22 11:42:41;;;;;;;;;;;22.50;99.90;;;;;;5040858;28;20839;-68
2023/05/22 11:45:07;;;;;;;;;;;22.50;99.90;;;;;;5022789;28;19935;-68
2023/05/22 11:47:32;;;;;;;;;;;22.60;99.90;;;;;;5022753;28;19931;-67
2023/05/22 11:49:58;;;;;;;;;;;22.60;99.90;;;;;;5043107;28;19917;-65
2023/05/22 11:52:24;;;;;;;;;;;22.70;99.90;;;;;;5042608;28;20451;-65
2023/05/22 11:54:52;;;;;;;;;;;22.80;99.90;;;;;;5040596;28;19989;-65
2023/05/22 11:57:19;;;;;;;;;;;22.90;99.90;;;;;;5041813;28;20448;-65
2023/05/22 11:59:48;;;;;;;;;;;23.00;99.90;;;;;;5039909;28;19917;-66
2023/05/22 12:02:14;;;;;;;;;;;23.10;99.90;;;;;;5037151;28;19924;-65
2023/05/22 12:04:43;;;;;;;;;;;23.20;99.90;;;;;;5037933;28;19924;-65
2023/05/22 12:07:15;;;;;;;;;;;23.30;99.90;;;;;;5039549;28;19962;-65
2023/05/22 12:09:41;;;;;;;;;;;23.30;99.90;;;;;;5044323;28;19988;-65
2023/05/22 12:12:10;;;;;;;;;;;23.10;99.90;;;;;;5042840;28;20051;-66
2023/05/22 12:14:42;;;;;;;;;;;23.10;99.90;;;;;;5043626;28;19986;-66
2023/05/22 12:17:10;;;;;;;;;;;23.10;99.90;;;;;;5046057;28;19921;-66
2023/05/22 12:19:38;;;;;;;;;;;23.00;99.90;;;;;;5051159;28;20133;-66
2023/05/22 12:22:04;;;;;;;;;;;22.90;99.90;;;;;;5029351;28;19917;-67
2023/05/22 12:24:46;;;;;;;;;;;22.90;99.90;;;;;;5045285;28;19920;-66
2023/05/22 12:27:12;;;;;;;;;;;22.90;99.90;;;;;;5045347;28;20530;-67
2023/05/22 12:29:38;;;;;;;;;;;22.90;99.90;;;;;;5026500;28;19917;-66
2023/05/22 12:32:05;;;;;;;;;;;23.00;99.90;;;;;;5046060;28;19917;-66
2023/05/22 12:34:31;;;;;;;;;;;22.90;99.90;;;;;;5044275;28;19924;-66
2023/05/22 12:36:57;;;;;;;;;;;22.90;99.90;;;;;;5025357;28;20490;-66
2023/05/22 12:39:22;;;;;;;;;;;23.00;99.90;;;;;;5044902;28;20088;-66
2023/05/22 12:41:48;;;;;;;;;;;23.10;99.90;;;;;;5043243;28;20053;-66
2023/05/22 12:44:15;;;;;;;;;;;23.10;99.90;;;;;;5050267;22;20019;-68
2023/05/22 12:46:40;;;;;;;;;;;23.00;99.90;;;;;;5059246;28;20285;-68
2023/05/22 12:49:06;;;;;;;;;;;23.00;99.90;;;;;;5044184;28;19923;-67
2023/05/22 12:51:32;;;;;;;;;;;23.00;99.90;;;;;;5067408;28;19998;-68
2023/05/22 12:53:57;;;;;;;;;;;23.00;99.90;;;;;;5065528;28;19920;-68
2023/05/22 12:56:23;;;;;;;;;;;22.90;99.90;;;;;;5062085;28;19920;-68
2023/05/22 12:58:48;;;;;;;;;;;23.00;99.90;;;;;;5062582;28;20065;-68
2023/05/22 13:01:14;;;;;;;;;;;23.00;99.90;;;;;;5076969;28;19923;-68
2023/05/22 13:03:40;;;;;;;;;;;23.10;99.90;;;;;;5078872;28;20381;-68
2023/05/22 13:06:05;;;;;;;;;;;23.20;99.90;;;;;;5060730;28;20143;-68
2023/05/22 13:08:31;;;;;;;;;;;23.30;99.90;;;;;;5059875;28;19955;-68
2023/05/22 13:10:56;;;;;;;;;;;23.40;99.90;;;;;;5082828;28;20466;-68
2023/05/22 13:13:22;;;;;;;;;;;23.40;99.90;;;;;;5062184;28;20011;-68
2023/05/22 13:15:50;;;;;;;;;;;23.50;99.90;;;;;;5063096;28;20560;-68
2023/05/22 13:18:19;;;;;;;;;;;23.50;99.90;;;;;;5064212;28;19924;-68
2023/05/22 13:20:44;;;;;;;;;;;23.50;99.90;;;;;;5076450;28;19916;-68
2023/05/22 13:23:10;;;;;;;;;;;23.60;99.90;;;;;;5065254;28;20669;-68
2023/05/22 13:25:35;;;;;;;;;;;23.60;99.90;;;;;;5059085;28;20360;-67
2023/05/22 13:28:01;;;;;;;;;;;23.60;99.90;;;;;;5076808;28;19920;-68
2023/05/22 13:30:27;;;;;;;;;;;23.60;99.90;;;;;;5079965;28;20074;-68
2023/05/22 13:32:53;;;;;;;;;;;23.70;99.90;;;;;;5064918;28;19920;-68
2023/05/22 13:35:21;;;;;;;;;;;23.50;99.90;;;;;;5061466;28;19932;-68
2023/05/22 13:37:47;;;;;;;;;;;23.60;99.90;;;;;;5080577;28;20007;-68
2023/05/22 13:40:13;;;;;;;;;;;23.60;99.90;;;;;;5079381;28;20318;-68
2023/05/22 13:42:39;;;;;;;;;;;23.50;99.90;;;;;;5056016;28;20292;-68
2023/05/22 13:45:05;;;;;;;;;;;23.50;99.90;;;;;;5059435;28;19984;-68
2023/05/22 13:47:31;;;;;;;;;;;23.40;99.90;;;;;;5076783;28;19927;-68
2023/05/22 13:49:56;;;;;;;;;;;23.40;99.90;;;;;;5061770;28;20009;-68
2023/05/22 13:52:22;;;;;;;;;;;23.40;99.90;;;;;;5039017;28;19962;-67
2023/05/22 13:54:47;;;;;;;;;;;23.40;99.90;;;;;;5044815;28;19970;-68
2023/05/22 13:57:13;;;;;;;;;;;23.40;99.90;;;;;;5059522;28;19916;-68
2023/05/22 13:59:39;;;;;;;;;;;23.30;99.90;;;;;;5069392;28;19939;-68
2023/05/22 14:02:04;;;;;;;;;;;23.30;99.90;;;;;;5059012;28;20032;-67
2023/05/22 14:04:30;;;;;;;;;;;23.30;99.90;;;;;;5059171;28;19938;-67
2023/05/22 14:06:55;;;;;;;;;;;23.20;99.90;;;;;;5060140;28;20640;-68
2023/05/22 14:09:21;;;;;;;;;;;23.20;99.90;;;;;;5075552;28;20509;-68
2023/05/22 14:11:46;;;;;;;;;;;23.20;99.90;;;;;;5060417;28;19939;-68
2023/05/22 14:14:12;;;;;;;;;;;23.30;99.90;;;;;;5056963;28;20118;-68